createdAt,value
2022-08-03T00:02:33.709Z,20.00
2022-08-03T00:05:37.453Z,20.02
2022-08-03T00:08:40.471Z,19.93
2022-08-03T00:11:43.213Z,20.19
2022-08-03T00:14:47.369Z,20.02
2022-08-03T00:17:53.302Z,19.91
2022-08-03T00:20:56.882Z,19.85
2022-08-03T00:23:59.647Z,19.68
2022-08-03T00:27:02.447Z,19.67
2022-08-03T00:30:07.863Z,19.79
2022-08-03T00:33:11.049Z,19.59
2022-08-03T00:36:13.975Z,19.58
2022-08-03T00:39:21.048Z,19.58
2022-08-03T00:42:24.028Z,19.27
2022-08-03T00:45:33.566Z,19.43
2022-08-03T00:48:36.409Z,19.38
2022-08-03T00:51:39.890Z,19.14
2022-08-03T00:54:42.710Z,19.09
2022-08-03T00:57:45.479Z,19.51
2022-08-03T01:00:52.619Z,19.05
2022-08-03T01:03:55.464Z,19.21
2022-08-03T01:07:04.601Z,19.03
2022-08-03T01:10:18.880Z,19.04
2022-08-03T01:13:59.224Z,19.03
2022-08-03T01:16:53.849Z,19.07
2022-08-03T01:20:01.968Z,19.03
2022-08-03T01:23:11.329Z,18.99
2022-08-03T01:26:21.043Z,19.32
2022-08-03T01:29:39.517Z,19.36
2022-08-03T01:32:58.801Z,19.13
2022-08-03T01:36:05.956Z,18.93
2022-08-03T01:39:11.543Z,18.96
2022-08-03T01:42:15.266Z,18.93
2022-08-03T01:45:20.920Z,18.93
2022-08-03T01:48:24.138Z,18.99
2022-08-03T01:52:03.098Z,19.05
2022-08-03T01:54:50.916Z,18.90
2022-08-03T01:58:05.982Z,18.65
2022-08-03T02:01:11.587Z,18.94
2022-08-03T02:04:15.760Z,18.74
2022-08-03T02:07:18.966Z,18.52
2022-08-03T02:10:34.496Z,18.54
2022-08-03T02:13:39.934Z,18.72
2022-08-03T02:16:44.559Z,18.65
2022-08-03T02:19:50.169Z,18.67
2022-08-03T02:22:55.749Z,18.57
2022-08-03T02:26:00.119Z,18.55
2022-08-03T02:29:07.048Z,18.48
2022-08-03T02:32:15.469Z,18.39
2022-08-03T02:35:21.413Z,18.53
2022-08-03T02:38:27.329Z,18.75
2022-08-03T02:41:33.072Z,18.68
2022-08-03T02:44:38.910Z,18.49
2022-08-03T02:47:54.345Z,18.48
2022-08-03T02:50:59.769Z,18.45
2022-08-03T02:54:03.913Z,18.47
2022-08-03T02:57:08.274Z,18.71
2022-08-03T03:00:11.609Z,18.72
2022-08-03T03:03:16.301Z,18.77
2022-08-03T03:06:22.811Z,18.97
2022-08-03T03:09:29.220Z,18.97
2022-08-03T03:12:46.772Z,18.67
2022-08-03T03:15:50.209Z,19.01
2022-08-03T03:18:55.396Z,18.88
2022-08-03T03:22:00.059Z,18.89
2022-08-03T03:25:03.532Z,18.89
2022-08-03T03:28:06.818Z,19.20
2022-08-03T03:31:10.888Z,18.94
2022-08-03T03:34:15.213Z,19.04
2022-08-03T03:37:19.343Z,19.03
2022-08-03T03:40:22.656Z,19.24
2022-08-03T03:43:25.920Z,19.31
2022-08-03T03:46:28.865Z,19.28
2022-08-03T03:49:33.865Z,19.31
2022-08-03T03:52:36.712Z,19.49
2022-08-03T03:55:57.744Z,19.48
2022-08-03T03:59:03.015Z,20.01
2022-08-03T04:02:06.087Z,19.87
2022-08-03T04:05:28.425Z,19.73
2022-08-03T04:08:49.390Z,19.85
2022-08-03T04:11:53.550Z,19.85
2022-08-03T04:14:57.917Z,20.01
2022-08-03T04:18:01.068Z,20.19
2022-08-03T04:21:07.481Z,20.17
2022-08-03T04:24:11.664Z,20.33
2022-08-03T04:27:16.465Z,20.38
2022-08-03T04:30:19.962Z,20.42
2022-08-03T04:33:24.998Z,20.88
2022-08-03T04:36:34.872Z,21.12
2022-08-03T04:39:38.243Z,21.23
2022-08-03T04:42:41.841Z,21.19
2022-08-03T04:45:45.184Z,21.34
2022-08-03T04:48:48.123Z,22.10
2022-08-03T04:51:52.574Z,21.41
2022-08-03T04:54:55.419Z,21.30
2022-08-03T04:57:58.356Z,21.55
2022-08-03T05:01:01.206Z,21.88
2022-08-03T05:04:04.029Z,21.66
2022-08-03T05:07:11.521Z,21.48
2022-08-03T05:10:16.323Z,21.37
2022-08-03T05:13:19.622Z,21.75
2022-08-03T05:16:22.423Z,21.52
2022-08-03T05:19:25.183Z,21.79
2022-08-03T05:22:29.328Z,21.82
2022-08-03T05:25:32.285Z,22.41
2022-08-03T05:28:35.058Z,22.67
2022-08-03T05:31:37.982Z,23.09
2022-08-03T05:34:40.784Z,22.92
2022-08-03T05:37:54.822Z,22.75
2022-08-03T05:41:21.089Z,23.11
2022-08-03T05:44:20.961Z,22.94
2022-08-03T05:47:23.706Z,22.68
2022-08-03T05:50:26.582Z,23.00
2022-08-03T05:53:34.072Z,23.08
2022-08-03T05:56:37.021Z,22.81
2022-08-03T05:59:39.828Z,22.94
2022-08-03T06:02:58.562Z,22.78
2022-08-03T06:06:01.330Z,22.66
2022-08-03T06:09:05.584Z,22.88
2022-08-03T06:12:13.728Z,23.08
2022-08-03T06:15:17.527Z,22.85
2022-08-03T06:18:20.283Z,23.34
2022-08-03T06:21:23.076Z,23.45
2022-08-03T06:24:27.245Z,23.06
2022-08-03T06:27:37.306Z,23.27
2022-08-03T06:30:40.334Z,23.78
2022-08-03T06:34:31.357Z,24.18
2022-08-03T06:37:06.392Z,23.22
2022-08-03T06:40:11.537Z,23.70
2022-08-03T06:43:16.918Z,23.85
2022-08-03T06:46:19.944Z,23.66
2022-08-03T06:49:23.065Z,24.30
2022-08-03T06:52:37.916Z,24.29
2022-08-03T06:55:42.847Z,23.92
2022-08-03T06:58:47.017Z,24.03
2022-08-03T07:01:49.928Z,23.68
2022-08-03T07:04:53.015Z,23.66
2022-08-03T07:07:56.876Z,23.92
2022-08-03T07:11:01.091Z,24.24
2022-08-03T07:14:04.463Z,23.83
2022-08-03T07:17:11.839Z,24.36
2022-08-03T07:20:15.366Z,24.64
2022-08-03T07:36:50.813Z,25.29
2022-08-03T07:39:53.912Z,25.17
2022-08-03T07:42:58.382Z,25.73
2022-08-03T07:46:01.206Z,25.64
2022-08-03T07:49:04.234Z,25.77
2022-08-03T07:52:26.506Z,26.27
2022-08-03T07:55:31.413Z,26.32
2022-08-03T07:58:36.522Z,26.17
2022-08-03T08:01:39.460Z,25.44
2022-08-03T08:04:42.394Z,25.19
2022-08-03T08:07:51.114Z,25.62
2022-08-03T08:10:57.684Z,25.85
2022-08-03T08:14:03.166Z,26.01
2022-08-03T08:17:07.436Z,25.84
2022-08-03T08:20:11.462Z,26.41
2022-08-03T08:23:41.795Z,26.18
2022-08-03T08:26:45.782Z,26.14
2022-08-03T08:29:55.250Z,25.79
2022-08-03T08:32:59.765Z,26.06
2022-08-03T08:36:02.718Z,26.47
2022-08-03T08:39:06.993Z,26.30
2022-08-03T08:42:11.144Z,26.66
2022-08-03T08:45:15.831Z,26.58
2022-08-03T08:48:22.329Z,26.96
2022-08-03T08:51:54.245Z,27.04
2022-08-03T08:54:53.690Z,27.31
2022-08-03T08:57:59.391Z,26.91
2022-08-03T09:01:02.347Z,27.23
2022-08-03T09:04:07.362Z,27.33
2022-08-03T09:07:29.087Z,26.96
2022-08-03T09:10:34.877Z,26.99
2022-08-03T09:13:37.781Z,26.70
2022-08-03T09:16:56.321Z,27.00
2022-08-03T09:20:09.329Z,27.16
2022-08-03T09:23:59.684Z,27.71
2022-08-03T09:26:37.151Z,29.91
2022-08-03T09:29:40.146Z,29.45
2022-08-03T09:32:44.900Z,27.67
2022-08-03T09:35:54.044Z,28.02
2022-08-03T09:39:02.869Z,30.29
2022-08-03T09:42:08.144Z,31.89
2022-08-03T09:45:26.949Z,33.37
2022-08-03T09:48:30.753Z,30.17
2022-08-03T09:52:32.612Z,28.88
2022-08-03T09:54:56.793Z,27.91
2022-08-03T09:58:07.116Z,27.67
2022-08-03T10:01:23.672Z,31.96
2022-08-03T10:04:27.364Z,29.23
2022-08-03T10:07:30.104Z,30.74
2022-08-03T10:10:42.797Z,28.84
2022-08-03T10:13:47.250Z,28.22
2022-08-03T10:16:50.568Z,27.70
2022-08-03T10:19:53.375Z,29.84
2022-08-03T10:22:56.386Z,29.87
2022-08-03T10:25:59.888Z,28.64
2022-08-03T10:29:05.268Z,27.93
2022-08-03T10:32:19.695Z,27.93
2022-08-03T10:35:23.496Z,28.52
2022-08-03T10:38:30.872Z,32.18
2022-08-03T10:41:37.068Z,33.58
2022-08-03T10:44:42.519Z,33.82
2022-08-03T10:47:45.593Z,29.39
2022-08-03T10:50:49.723Z,28.60
2022-08-03T10:53:54.651Z,28.55
2022-08-03T10:57:16.101Z,31.63
2022-08-03T11:00:23.158Z,32.49
2022-08-03T11:03:25.976Z,33.00
2022-08-03T11:06:28.826Z,32.46
2022-08-03T11:09:42.667Z,32.19
2022-08-03T11:12:45.968Z,30.55
2022-08-03T11:15:52.377Z,31.06
2022-08-03T11:18:57.069Z,30.47
2022-08-03T11:22:02.436Z,32.60
2022-08-03T11:25:05.899Z,31.36
2022-08-03T11:28:28.536Z,33.22
2022-08-03T11:31:51.033Z,29.82
2022-08-03T11:35:08.446Z,29.49
2022-08-03T11:38:13.971Z,30.30
2022-08-03T11:41:31.598Z,33.31
2022-08-03T11:44:41.056Z,33.72
2022-08-03T11:47:50.292Z,31.62
2022-08-03T11:50:54.736Z,29.35
2022-08-03T11:53:58.280Z,28.48
2022-08-03T11:57:01.135Z,32.23
2022-08-03T12:00:20.321Z,32.95
2022-08-03T12:03:24.579Z,31.15
2022-08-03T12:06:27.564Z,29.44
2022-08-03T12:09:30.686Z,28.32
2022-08-03T12:12:33.587Z,28.10
2022-08-03T12:15:36.965Z,28.66
2022-08-03T12:18:41.237Z,29.83
2022-08-03T12:21:55.830Z,30.77
2022-08-03T12:25:00.203Z,30.04
2022-08-03T12:28:36.231Z,29.25
2022-08-03T12:31:40.244Z,28.32
2022-08-03T12:34:50.987Z,28.50
2022-08-03T12:37:54.271Z,28.00
2022-08-03T12:41:00.877Z,28.48
2022-08-03T12:44:04.933Z,27.68
2022-08-03T12:47:10.267Z,26.95
2022-08-03T12:50:26.470Z,27.18
2022-08-03T12:53:30.214Z,27.69
2022-08-03T12:56:33.323Z,27.44
2022-08-03T12:59:40.435Z,27.12
2022-08-03T13:02:46.451Z,27.41
2022-08-03T13:05:50.956Z,27.65
2022-08-03T13:09:03.665Z,27.94
2022-08-03T13:12:08.386Z,27.08
2022-08-03T13:15:11.366Z,27.23
2022-08-03T13:32:20.353Z,26.62
2022-08-03T13:35:23.422Z,26.92
2022-08-03T13:38:26.993Z,26.92
2022-08-03T13:41:31.387Z,27.12
2022-08-03T13:44:37.012Z,27.23
2022-08-03T13:47:41.328Z,27.02
2022-08-03T13:50:44.188Z,26.87
2022-08-03T13:53:47.125Z,26.80
2022-08-03T13:56:52.825Z,27.03
2022-08-03T13:59:55.613Z,26.49
2022-08-03T14:03:07.972Z,26.84
2022-08-03T14:06:12.256Z,26.63
2022-08-03T14:09:15.607Z,26.19
2022-08-03T14:12:18.425Z,25.79
2022-08-03T14:15:21.198Z,25.17
2022-08-03T14:18:28.432Z,24.68
2022-08-03T14:21:32.466Z,24.49
2022-08-03T14:24:35.275Z,24.32
2022-08-03T14:27:38.222Z,24.73
2022-08-03T14:30:41.062Z,25.32
2022-08-03T14:33:45.674Z,24.63
2022-08-03T14:36:48.589Z,25.93
2022-08-03T14:40:00.214Z,24.53
2022-08-03T14:43:03.599Z,25.10
2022-08-03T14:46:07.319Z,26.01
2022-08-03T14:50:33.962Z,25.14
2022-08-03T14:52:36.729Z,25.82
2022-08-03T14:55:49.999Z,24.17
2022-08-03T14:58:54.319Z,24.02
2022-08-03T15:02:02.351Z,24.40
2022-08-03T15:05:12.776Z,24.65
2022-08-03T15:08:16.572Z,23.82
2022-08-03T15:11:19.534Z,23.88
2022-08-03T15:14:28.248Z,24.40
2022-08-03T15:17:35.272Z,24.93
2022-08-03T15:20:45.065Z,24.25
2022-08-03T15:23:49.008Z,24.16
2022-08-03T15:26:52.102Z,23.83
2022-08-03T15:30:08.200Z,23.69
2022-08-03T15:33:13.184Z,24.08
2022-08-03T15:36:18.166Z,23.22
2022-08-03T15:39:21.087Z,23.57
2022-08-03T15:42:23.901Z,23.43
2022-08-03T15:45:27.870Z,23.53
2022-08-03T15:48:38.266Z,22.98
2022-08-03T15:51:42.408Z,22.96
2022-08-03T15:54:45.159Z,23.02
2022-08-03T15:59:03.591Z,22.97
2022-08-03T16:01:14.351Z,23.24
2022-08-03T16:04:20.519Z,22.82
2022-08-03T16:07:38.603Z,23.48
2022-08-03T16:10:41.760Z,22.26
2022-08-03T16:14:13.096Z,22.32
2022-08-03T16:17:07.478Z,22.62
2022-08-03T16:20:31.324Z,22.39
2022-08-03T16:23:37.536Z,22.62
2022-08-03T16:26:40.888Z,22.51
2022-08-03T16:29:44.844Z,22.43
2022-08-03T16:32:48.070Z,22.57
2022-08-03T16:35:54.277Z,22.27
2022-08-03T16:38:58.966Z,22.64
2022-08-03T16:42:02.252Z,22.62
2022-08-03T16:45:05.998Z,22.19
2022-08-03T16:48:08.867Z,23.15
2022-08-03T16:51:11.698Z,22.33
2022-08-03T16:54:17.223Z,22.42
2022-08-03T16:57:59.807Z,22.65
2022-08-03T17:00:46.346Z,22.59
2022-08-03T17:04:02.070Z,23.14
2022-08-03T17:07:07.293Z,22.71
2022-08-03T17:10:13.419Z,22.54
2022-08-03T17:13:22.022Z,22.38
2022-08-03T17:16:25.557Z,21.88
2022-08-03T17:19:29.992Z,22.06
2022-08-03T17:22:34.077Z,21.93
2022-08-03T17:25:39.804Z,21.94
2022-08-03T17:29:11.218Z,21.75
2022-08-03T17:32:21.434Z,21.89
2022-08-03T17:35:24.649Z,21.53
2022-08-03T17:38:38.267Z,21.65
2022-08-03T17:41:49.137Z,21.54
2022-08-03T17:44:53.310Z,21.58
2022-08-03T17:47:57.427Z,21.72
2022-08-03T17:51:01.646Z,21.73
2022-08-03T17:54:20.436Z,21.88
2022-08-03T17:57:30.822Z,22.24
2022-08-03T18:02:05.658Z,22.00
2022-08-03T18:04:42.560Z,21.91
2022-08-03T18:07:47.700Z,22.07
2022-08-03T18:10:54.259Z,22.47
2022-08-03T18:14:18.054Z,21.67
2022-08-03T18:17:55.820Z,22.05
2022-08-03T18:20:54.393Z,21.59
2022-08-03T18:24:01.051Z,21.62
2022-08-03T18:27:07.439Z,22.02
2022-08-03T18:30:14.178Z,22.11
2022-08-03T18:34:19.156Z,22.37
2022-08-03T18:36:52.148Z,22.00
2022-08-03T18:40:00.012Z,22.05
2022-08-03T18:43:07.988Z,21.84
2022-08-03T18:46:28.663Z,22.30
2022-08-03T18:49:42.793Z,22.07
2022-08-03T18:52:56.960Z,21.44
2022-08-03T18:56:05.864Z,21.51
2022-08-03T18:59:18.659Z,22.00
2022-08-03T19:02:36.617Z,22.11
2022-08-03T19:06:01.931Z,21.63
2022-08-03T19:09:13.155Z,21.57
2022-08-03T19:12:27.277Z,22.00
2022-08-03T19:15:50.913Z,21.59
2022-08-03T19:19:02.119Z,21.50
2022-08-03T19:22:09.497Z,21.54
2022-08-03T19:25:16.891Z,21.31
2022-08-03T19:28:30.279Z,21.57
2022-08-03T19:31:35.087Z,21.52
2022-08-03T19:34:41.388Z,21.73
2022-08-03T19:37:50.387Z,22.13
2022-08-03T19:40:57.707Z,21.53
2022-08-03T19:44:05.121Z,21.26
2022-08-03T19:47:11.085Z,21.61
2022-08-03T19:50:22.757Z,21.13
2022-08-03T19:53:35.175Z,20.78
2022-08-03T19:56:43.983Z,21.18
2022-08-03T19:59:51.278Z,21.22
2022-08-03T20:02:54.292Z,21.21
2022-08-03T20:05:59.185Z,21.07
2022-08-03T20:09:02.197Z,20.97
2022-08-03T20:12:05.679Z,21.37
2022-08-03T20:15:10.596Z,21.09
2022-08-03T20:18:16.775Z,21.09
2022-08-03T20:21:23.603Z,20.89
2022-08-03T20:24:28.090Z,20.96
2022-08-03T20:27:32.455Z,20.96
2022-08-03T20:30:55.816Z,21.02
2022-08-03T20:33:59.822Z,20.97
2022-08-03T20:37:05.105Z,20.94
2022-08-03T20:40:12.530Z,20.75
2022-08-03T20:43:20.024Z,21.01
2022-08-03T20:46:33.881Z,20.87
2022-08-03T20:49:45.539Z,20.45
2022-08-03T20:52:50.780Z,20.70
2022-08-03T20:56:01.897Z,20.67
2022-08-03T20:59:07.097Z,20.69
2022-08-03T21:02:19.906Z,20.46
2022-08-03T21:05:51.220Z,20.43
2022-08-03T21:09:04.073Z,20.64
2022-08-03T21:12:08.689Z,20.56
2022-08-03T21:15:59.618Z,20.82
2022-08-03T21:18:37.922Z,20.75
2022-08-03T21:21:43.289Z,20.92
2022-08-03T21:24:51.446Z,20.56
2022-08-03T21:27:59.495Z,20.32
2022-08-03T21:31:02.409Z,20.56
2022-08-03T21:34:06.192Z,20.58
2022-08-03T21:37:09.220Z,20.56
2022-08-03T21:40:14.326Z,20.35
2022-08-03T21:43:17.313Z,20.45
2022-08-03T21:46:20.978Z,20.58
2022-08-03T21:50:06.953Z,20.45
2022-08-03T21:52:51.130Z,20.64
2022-08-03T21:55:57.744Z,20.41
2022-08-03T21:59:03.687Z,20.38
2022-08-03T22:02:12.242Z,20.44
2022-08-03T22:05:42.618Z,20.08
2022-08-03T22:08:47.397Z,19.97
2022-08-03T22:11:54.214Z,20.35
2022-08-03T22:15:00.932Z,20.00
2022-08-03T22:18:05.409Z,19.89
2022-08-03T22:21:09.054Z,19.86
2022-08-03T22:24:12.434Z,19.89
2022-08-03T22:27:32.796Z,19.80
2022-08-03T22:30:36.565Z,19.84
2022-08-03T22:33:41.131Z,19.65
2022-08-03T22:36:44.173Z,19.58
2022-08-03T22:39:49.406Z,19.41
2022-08-03T22:42:54.500Z,19.86
2022-08-03T22:46:08.903Z,19.59
2022-08-03T22:49:15.897Z,19.52
2022-08-03T22:52:19.142Z,19.40
2022-08-03T22:55:25.041Z,19.45
2022-08-03T22:58:29.423Z,19.37
2022-08-03T23:01:36.900Z,19.34
2022-08-03T23:04:40.584Z,19.49
2022-08-03T23:07:44.837Z,19.54
2022-08-03T23:10:48.779Z,19.47
2022-08-03T23:13:54.153Z,19.47
2022-08-03T23:16:57.529Z,19.47
2022-08-03T23:20:02.893Z,19.70
2022-08-03T23:23:06.238Z,20.05
2022-08-03T23:26:11.307Z,20.06
2022-08-03T23:29:17.163Z,20.07
2022-08-03T23:32:21.505Z,20.37
2022-08-03T23:36:28.419Z,20.76
2022-08-03T23:39:05.061Z,19.77
2022-08-03T23:42:07.986Z,20.27
2022-08-03T23:45:12.909Z,20.06
2022-08-03T23:48:15.708Z,20.36
2022-08-03T23:51:20.731Z,21.84
2022-08-03T23:54:29.121Z,20.64
2022-08-03T23:57:38.329Z,22.39
